Aviation Digital Data Service (ADDS)

Output produced by METARs form (1334 UTC 21 October 2014)
found at http://aviationweather.gov/adds/metars/
 
KCLT 211121Z 2112/2212 29003KT P6SM SKC 
     FM211300 28005KT P6SM FEW250 
     FM211900 30010G18KT P6SM FEW050 FEW250 
     FM220100 33009KT P6SM FEW250